sensor_id;sensor_type;location;lat;lon;timestamp;P1;durP1;ratioP1;P2;durP2;ratioP2
73869;SDS011;64924;42.140;24.762;2023-03-16T00:02:10;12.85;;;8.50;;
73869;SDS011;64924;42.140;24.762;2023-03-16T00:04:37;17.60;;;9.02;;
73869;SDS011;64924;42.140;24.762;2023-03-16T00:07:03;17.45;;;8.90;;
73869;SDS011;64924;42.140;24.762;2023-03-16T00:09:30;13.48;;;8.05;;
73869;SDS011;64924;42.140;24.762;2023-03-16T00:11:59;14.80;;;8.07;;
73869;SDS011;64924;42.140;24.762;2023-03-16T00:14:30;13.95;;;8.38;;
73869;SDS011;64924;42.140;24.762;2023-03-16T00:16:56;15.68;;;8.25;;
73869;SDS011;64924;42.140;24.762;2023-03-16T00:19:22;16.23;;;7.47;;
73869;SDS011;64924;42.140;24.762;2023-03-16T00:21:51;20.38;;;8.20;;
73869;SDS011;64924;42.140;24.762;2023-03-16T00:24:17;18.17;;;8.52;;
73869;SDS011;64924;42.140;24.762;2023-03-16T00:26:43;13.05;;;7.60;;
73869;SDS011;64924;42.140;24.762;2023-03-16T00:29:09;16.42;;;8.48;;
73869;SDS011;64924;42.140;24.762;2023-03-16T00:31:36;16.83;;;8.70;;
73869;SDS011;64924;42.140;24.762;2023-03-16T00:34:02;13.77;;;7.82;;
73869;SDS011;64924;42.140;24.762;2023-03-16T00:36:27;10.75;;;7.20;;
73869;SDS011;64924;42.140;24.762;2023-03-16T00:38:54;12.30;;;7.20;;
73869;SDS011;64924;42.140;24.762;2023-03-16T00:41:19;10.27;;;7.10;;
73869;SDS011;64924;42.140;24.762;2023-03-16T00:43:47;14.25;;;7.03;;
73869;SDS011;64924;42.140;24.762;2023-03-16T00:46:16;10.30;;;7.25;;
73869;SDS011;64924;42.140;24.762;2023-03-16T00:48:42;11.60;;;6.85;;
73869;SDS011;64924;42.140;24.762;2023-03-16T00:51:10;13.65;;;7.32;;
73869;SDS011;64924;42.140;24.762;2023-03-16T00:53:39;12.20;;;7.22;;
73869;SDS011;64924;42.140;24.762;2023-03-16T00:56:06;10.10;;;6.60;;
73869;SDS011;64924;42.140;24.762;2023-03-16T00:58:34;10.30;;;6.85;;
73869;SDS011;64924;42.140;24.762;2023-03-16T01:01:05;7.90;;;6.93;;
73869;SDS011;64924;42.140;24.762;2023-03-16T01:03:32;9.32;;;6.90;;
73869;SDS011;64924;42.140;24.762;2023-03-16T01:06:02;10.45;;;7.47;;
73869;SDS011;64924;42.140;24.762;2023-03-16T01:08:34;11.13;;;6.97;;
73869;SDS011;64924;42.140;24.762;2023-03-16T01:11:01;9.50;;;6.95;;
73869;SDS011;64924;42.140;24.762;2023-03-16T01:13:28;11.23;;;7.38;;
73869;SDS011;64924;42.140;24.762;2023-03-16T01:15:54;12.10;;;7.60;;
73869;SDS011;64924;42.140;24.762;2023-03-16T01:18:19;11.93;;;7.13;;
73869;SDS011;64924;42.140;24.762;2023-03-16T01:20:46;8.43;;;6.80;;
73869;SDS011;64924;42.140;24.762;2023-03-16T01:23:18;8.80;;;6.88;;
73869;SDS011;64924;42.140;24.762;2023-03-16T01:25:46;12.88;;;7.20;;
73869;SDS011;64924;42.140;24.762;2023-03-16T01:28:21;10.13;;;7.40;;
73869;SDS011;64924;42.140;24.762;2023-03-16T01:30:49;11.55;;;6.82;;
73869;SDS011;64924;42.140;24.762;2023-03-16T01:33:22;10.82;;;6.65;;
73869;SDS011;64924;42.140;24.762;2023-03-16T01:35:59;7.68;;;6.10;;
73869;SDS011;64924;42.140;24.762;2023-03-16T01:38:26;12.40;;;5.38;;
73869;SDS011;64924;42.140;24.762;2023-03-16T01:40:52;8.80;;;5.38;;
73869;SDS011;64924;42.140;24.762;2023-03-16T01:43:19;10.68;;;5.45;;
73869;SDS011;64924;42.140;24.762;2023-03-16T01:48:29;10.85;;;4.70;;
73869;SDS011;64924;42.140;24.762;2023-03-16T01:51:15;14.73;;;3.83;;
73869;SDS011;64924;42.140;24.762;2023-03-16T01:53:59;4.13;;;3.53;;
73869;SDS011;64924;42.140;24.762;2023-03-16T01:56:34;4.70;;;3.38;;
73869;SDS011;64924;42.140;24.762;2023-03-16T01:59:06;6.22;;;2.90;;
73869;SDS011;64924;42.140;24.762;2023-03-16T02:01:36;4.45;;;2.40;;
73869;SDS011;64924;42.140;24.762;2023-03-16T02:04:04;3.65;;;2.88;;
73869;SDS011;64924;42.140;24.762;2023-03-16T02:06:38;4.57;;;2.63;;
73869;SDS011;64924;42.140;24.762;2023-03-16T02:09:04;11.13;;;3.47;;
73869;SDS011;64924;42.140;24.762;2023-03-16T02:11:31;6.03;;;2.47;;
73869;SDS011;64924;42.140;24.762;2023-03-16T02:13:59;3.63;;;2.70;;
73869;SDS011;64924;42.140;24.762;2023-03-16T02:16:30;3.47;;;2.20;;
73869;SDS011;64924;42.140;24.762;2023-03-16T02:18:55;3.30;;;2.38;;
73869;SDS011;64924;42.140;24.762;2023-03-16T02:21:27;5.50;;;2.53;;
73869;SDS011;64924;42.140;24.762;2023-03-16T02:23:57;3.15;;;2.33;;
73869;SDS011;64924;42.140;24.762;2023-03-16T02:26:33;3.20;;;2.72;;
73869;SDS011;64924;42.140;24.762;2023-03-16T02:32:11;5.07;;;2.95;;
73869;SDS011;64924;42.140;24.762;2023-03-16T02:34:38;4.13;;;3.20;;
73869;SDS011;64924;42.140;24.762;2023-03-16T02:37:04;4.70;;;3.10;;
73869;SDS011;64924;42.140;24.762;2023-03-16T02:39:31;3.88;;;2.97;;
73869;SDS011;64924;42.140;24.762;2023-03-16T02:41:58;6.15;;;3.13;;
73869;SDS011;64924;42.140;24.762;2023-03-16T02:44:28;3.95;;;2.50;;
73869;SDS011;64924;42.140;24.762;2023-03-16T02:46:59;3.75;;;2.60;;
73869;SDS011;64924;42.140;24.762;2023-03-16T02:49:40;4.80;;;2.83;;
73869;SDS011;64924;42.140;24.762;2023-03-16T02:52:08;4.40;;;2.78;;
73869;SDS011;64924;42.140;24.762;2023-03-16T02:54:34;4.57;;;2.70;;
73869;SDS011;64924;42.140;24.762;2023-03-16T02:56:59;4.45;;;2.53;;
73869;SDS011;64924;42.140;24.762;2023-03-16T02:59:25;5.07;;;2.35;;
73869;SDS011;64924;42.140;24.762;2023-03-16T03:01:51;3.63;;;2.55;;
73869;SDS011;64924;42.140;24.762;2023-03-16T03:04:16;3.67;;;2.83;;
73869;SDS011;64924;42.140;24.762;2023-03-16T03:06:42;6.45;;;2.80;;
73869;SDS011;64924;42.140;24.762;2023-03-16T03:09:09;8.02;;;2.80;;
73869;SDS011;64924;42.140;24.762;2023-03-16T03:11:37;3.80;;;2.80;;
73869;SDS011;64924;42.140;24.762;2023-03-16T03:14:03;4.05;;;2.97;;
73869;SDS011;64924;42.140;24.762;2023-03-16T03:16:28;4.63;;;2.95;;
73869;SDS011;64924;42.140;24.762;2023-03-16T03:18:55;5.60;;;2.92;;
73869;SDS011;64924;42.140;24.762;2023-03-16T03:21:21;8.00;;;3.08;;
73869;SDS011;64924;42.140;24.762;2023-03-16T03:23:51;5.82;;;3.08;;
73869;SDS011;64924;42.140;24.762;2023-03-16T03:26:17;6.32;;;3.15;;
73869;SDS011;64924;42.140;24.762;2023-03-16T03:28:43;5.28;;;3.38;;
73869;SDS011;64924;42.140;24.762;2023-03-16T03:31:13;4.57;;;3.15;;
73869;SDS011;64924;42.140;24.762;2023-03-16T03:33:43;4.65;;;3.45;;
73869;SDS011;64924;42.140;24.762;2023-03-16T03:36:09;3.95;;;2.92;;
73869;SDS011;64924;42.140;24.762;2023-03-16T03:38:35;5.97;;;3.05;;
73869;SDS011;64924;42.140;24.762;2023-03-16T03:41:01;4.65;;;3.00;;
73869;SDS011;64924;42.140;24.762;2023-03-16T03:43:28;4.22;;;2.83;;
73869;SDS011;64924;42.140;24.762;2023-03-16T03:45:54;5.40;;;3.00;;
73869;SDS011;64924;42.140;24.762;2023-03-16T03:48:21;3.25;;;2.28;;
73869;SDS011;64924;42.140;24.762;2023-03-16T03:50:47;6.28;;;2.75;;
73869;SDS011;64924;42.140;24.762;2023-03-16T03:53:13;4.45;;;2.40;;
73869;SDS011;64924;42.140;24.762;2023-03-16T03:55:38;4.30;;;2.88;;
73869;SDS011;64924;42.140;24.762;2023-03-16T03:58:04;5.90;;;2.40;;
73869;SDS011;64924;42.140;24.762;2023-03-16T04:00:29;4.15;;;2.60;;
73869;SDS011;64924;42.140;24.762;2023-03-16T04:02:55;3.75;;;2.50;;
73869;SDS011;64924;42.140;24.762;2023-03-16T04:05:20;4.63;;;2.30;;
73869;SDS011;64924;42.140;24.762;2023-03-16T04:07:46;6.15;;;2.72;;
73869;SDS011;64924;42.140;24.762;2023-03-16T04:10:12;4.90;;;2.95;;
73869;SDS011;64924;42.140;24.762;2023-03-16T04:12:38;3.47;;;2.40;;
73869;SDS011;64924;42.140;24.762;2023-03-16T04:15:04;5.13;;;2.80;;
73869;SDS011;64924;42.140;24.762;2023-03-16T04:17:30;4.65;;;2.45;;
73869;SDS011;64924;42.140;24.762;2023-03-16T04:19:55;5.47;;;2.72;;
73869;SDS011;64924;42.140;24.762;2023-03-16T04:22:21;5.22;;;2.65;;
73869;SDS011;64924;42.140;24.762;2023-03-16T04:24:47;8.82;;;2.88;;
73869;SDS011;64924;42.140;24.762;2023-03-16T04:27:12;4.13;;;2.30;;
73869;SDS011;64924;42.140;24.762;2023-03-16T04:29:38;4.90;;;2.30;;
73869;SDS011;64924;42.140;24.762;2023-03-16T04:32:06;4.35;;;2.67;;
73869;SDS011;64924;42.140;24.762;2023-03-16T04:34:32;10.38;;;2.17;;
73869;SDS011;64924;42.140;24.762;2023-03-16T04:36:58;3.50;;;2.22;;
73869;SDS011;64924;42.140;24.762;2023-03-16T04:39:24;5.28;;;2.83;;
73869;SDS011;64924;42.140;24.762;2023-03-16T04:41:49;4.75;;;3.00;;
73869;SDS011;64924;42.140;24.762;2023-03-16T04:44:15;3.65;;;2.70;;
73869;SDS011;64924;42.140;24.762;2023-03-16T04:46:41;4.20;;;2.55;;
73869;SDS011;64924;42.140;24.762;2023-03-16T04:49:07;5.57;;;2.55;;
73869;SDS011;64924;42.140;24.762;2023-03-16T04:51:34;6.90;;;2.30;;
73869;SDS011;64924;42.140;24.762;2023-03-16T04:54:04;4.68;;;2.50;;
73869;SDS011;64924;42.140;24.762;2023-03-16T04:56:30;5.30;;;1.98;;
73869;SDS011;64924;42.140;24.762;2023-03-16T04:58:55;3.67;;;1.90;;
73869;SDS011;64924;42.140;24.762;2023-03-16T05:01:21;5.28;;;2.58;;
73869;SDS011;64924;42.140;24.762;2023-03-16T05:03:47;3.85;;;2.20;;
73869;SDS011;64924;42.140;24.762;2023-03-16T05:06:14;3.72;;;1.80;;
73869;SDS011;64924;42.140;24.762;2023-03-16T05:08:39;6.43;;;1.67;;
73869;SDS011;64924;42.140;24.762;2023-03-16T05:11:05;3.25;;;1.60;;
73869;SDS011;64924;42.140;24.762;2023-03-16T05:13:30;2.25;;;1.52;;
73869;SDS011;64924;42.140;24.762;2023-03-16T05:15:56;2.00;;;1.35;;
73869;SDS011;64924;42.140;24.762;2023-03-16T05:18:22;1.90;;;1.40;;
73869;SDS011;64924;42.140;24.762;2023-03-16T05:20:48;7.38;;;1.60;;
73869;SDS011;64924;42.140;24.762;2023-03-16T05:23:15;10.82;;;1.80;;
73869;SDS011;64924;42.140;24.762;2023-03-16T05:25:41;4.80;;;1.40;;
73869;SDS011;64924;42.140;24.762;2023-03-16T05:28:07;3.80;;;1.15;;
73869;SDS011;64924;42.140;24.762;2023-03-16T05:30:32;8.63;;;1.30;;
73869;SDS011;64924;42.140;24.762;2023-03-16T05:32:58;4.03;;;1.10;;
73869;SDS011;64924;42.140;24.762;2023-03-16T05:35:23;10.95;;;1.27;;
73869;SDS011;64924;42.140;24.762;2023-03-16T05:37:49;4.75;;;1.20;;
73869;SDS011;64924;42.140;24.762;2023-03-16T05:40:14;5.07;;;1.45;;
73869;SDS011;64924;42.140;24.762;2023-03-16T05:42:44;3.95;;;1.30;;
73869;SDS011;64924;42.140;24.762;2023-03-16T05:45:11;2.90;;;1.20;;
73869;SDS011;64924;42.140;24.762;2023-03-16T05:47:39;6.60;;;1.80;;
73869;SDS011;64924;42.140;24.762;2023-03-16T05:50:06;2.95;;;1.50;;
73869;SDS011;64924;42.140;24.762;2023-03-16T05:52:35;5.93;;;1.70;;
73869;SDS011;64924;42.140;24.762;2023-03-16T05:55:03;5.13;;;1.52;;
73869;SDS011;64924;42.140;24.762;2023-03-16T05:57:30;5.78;;;2.13;;
73869;SDS011;64924;42.140;24.762;2023-03-16T05:59:56;4.85;;;1.42;;
73869;SDS011;64924;42.140;24.762;2023-03-16T06:02:21;6.60;;;1.38;;
73869;SDS011;64924;42.140;24.762;2023-03-16T06:04:47;5.38;;;1.50;;
73869;SDS011;64924;42.140;24.762;2023-03-16T06:07:12;3.25;;;1.25;;
73869;SDS011;64924;42.140;24.762;2023-03-16T06:09:38;3.40;;;1.50;;
73869;SDS011;64924;42.140;24.762;2023-03-16T06:12:03;2.33;;;1.45;;
73869;SDS011;64924;42.140;24.762;2023-03-16T06:14:29;5.97;;;1.60;;
73869;SDS011;64924;42.140;24.762;2023-03-16T06:16:55;3.10;;;1.52;;
73869;SDS011;64924;42.140;24.762;2023-03-16T06:19:20;2.80;;;1.50;;
73869;SDS011;64924;42.140;24.762;2023-03-16T06:21:46;2.65;;;1.65;;
73869;SDS011;64924;42.140;24.762;2023-03-16T06:24:11;2.15;;;1.20;;
73869;SDS011;64924;42.140;24.762;2023-03-16T06:26:37;1.58;;;1.30;;
73869;SDS011;64924;42.140;24.762;2023-03-16T06:29:03;4.82;;;1.27;;
73869;SDS011;64924;42.140;24.762;2023-03-16T06:31:29;7.13;;;1.45;;
73869;SDS011;64924;42.140;24.762;2023-03-16T06:33:55;4.25;;;1.35;;
73869;SDS011;64924;42.140;24.762;2023-03-16T06:36:21;3.72;;;1.25;;
73869;SDS011;64924;42.140;24.762;2023-03-16T06:38:47;5.45;;;1.63;;
73869;SDS011;64924;42.140;24.762;2023-03-16T06:41:13;3.20;;;1.30;;
73869;SDS011;64924;42.140;24.762;2023-03-16T06:43:38;3.05;;;1.42;;
73869;SDS011;64924;42.140;24.762;2023-03-16T06:46:04;2.47;;;1.35;;
73869;SDS011;64924;42.140;24.762;2023-03-16T06:48:30;10.45;;;2.15;;
73869;SDS011;64924;42.140;24.762;2023-03-16T06:50:55;2.45;;;1.33;;
73869;SDS011;64924;42.140;24.762;2023-03-16T06:53:20;3.22;;;1.50;;
73869;SDS011;64924;42.140;24.762;2023-03-16T06:55:46;4.65;;;1.83;;
73869;SDS011;64924;42.140;24.762;2023-03-16T06:58:12;4.07;;;1.58;;
73869;SDS011;64924;42.140;24.762;2023-03-16T07:00:38;2.83;;;1.30;;
73869;SDS011;64924;42.140;24.762;2023-03-16T07:03:03;3.47;;;1.52;;
73869;SDS011;64924;42.140;24.762;2023-03-16T07:05:29;3.25;;;1.02;;
73869;SDS011;64924;42.140;24.762;2023-03-16T07:07:55;5.50;;;2.28;;
73869;SDS011;64924;42.140;24.762;2023-03-16T07:10:21;5.40;;;1.20;;
73869;SDS011;64924;42.140;24.762;2023-03-16T07:12:47;3.15;;;1.80;;
73869;SDS011;64924;42.140;24.762;2023-03-16T07:15:14;6.88;;;1.30;;
73869;SDS011;64924;42.140;24.762;2023-03-16T07:17:39;5.18;;;1.00;;
73869;SDS011;64924;42.140;24.762;2023-03-16T07:20:06;3.42;;;1.40;;
73869;SDS011;64924;42.140;24.762;2023-03-16T07:22:34;2.72;;;1.45;;
73869;SDS011;64924;42.140;24.762;2023-03-16T07:25:01;3.72;;;1.30;;
73869;SDS011;64924;42.140;24.762;2023-03-16T07:27:27;5.63;;;1.40;;
73869;SDS011;64924;42.140;24.762;2023-03-16T07:29:53;4.45;;;1.67;;
73869;SDS011;64924;42.140;24.762;2023-03-16T07:32:19;2.83;;;1.70;;
73869;SDS011;64924;42.140;24.762;2023-03-16T07:34:45;5.22;;;2.05;;
73869;SDS011;64924;42.140;24.762;2023-03-16T07:37:11;5.07;;;1.40;;
73869;SDS011;64924;42.140;24.762;2023-03-16T07:39:37;7.15;;;2.03;;
73869;SDS011;64924;42.140;24.762;2023-03-16T07:42:02;4.55;;;1.55;;
73869;SDS011;64924;42.140;24.762;2023-03-16T07:44:28;4.63;;;2.30;;
73869;SDS011;64924;42.140;24.762;2023-03-16T07:46:54;4.40;;;2.05;;
73869;SDS011;64924;42.140;24.762;2023-03-16T07:49:19;5.07;;;2.05;;
73869;SDS011;64924;42.140;24.762;2023-03-16T07:51:45;3.55;;;1.80;;
73869;SDS011;64924;42.140;24.762;2023-03-16T07:54:11;5.00;;;2.70;;
73869;SDS011;64924;42.140;24.762;2023-03-16T07:56:38;3.63;;;1.77;;
73869;SDS011;64924;42.140;24.762;2023-03-16T07:59:03;5.25;;;1.80;;
73869;SDS011;64924;42.140;24.762;2023-03-16T08:01:29;3.45;;;1.65;;
73869;SDS011;64924;42.140;24.762;2023-03-16T08:03:54;5.15;;;2.33;;
73869;SDS011;64924;42.140;24.762;2023-03-16T08:06:20;6.57;;;2.22;;
73869;SDS011;64924;42.140;24.762;2023-03-16T08:08:46;5.13;;;1.65;;
73869;SDS011;64924;42.140;24.762;2023-03-16T08:11:11;3.53;;;1.77;;
73869;SDS011;64924;42.140;24.762;2023-03-16T08:13:38;8.90;;;2.72;;
73869;SDS011;64924;42.140;24.762;2023-03-16T08:16:07;4.95;;;2.08;;
73869;SDS011;64924;42.140;24.762;2023-03-16T08:18:34;3.50;;;1.98;;
73869;SDS011;64924;42.140;24.762;2023-03-16T08:21:01;5.40;;;1.80;;
73869;SDS011;64924;42.140;24.762;2023-03-16T08:23:27;5.43;;;2.00;;
73869;SDS011;64924;42.140;24.762;2023-03-16T08:25:53;3.03;;;1.40;;
73869;SDS011;64924;42.140;24.762;2023-03-16T08:28:21;4.13;;;1.60;;
73869;SDS011;64924;42.140;24.762;2023-03-16T08:30:47;4.10;;;1.50;;
73869;SDS011;64924;42.140;24.762;2023-03-16T08:33:15;3.72;;;1.42;;
73869;SDS011;64924;42.140;24.762;2023-03-16T08:35:42;5.05;;;1.85;;
73869;SDS011;64924;42.140;24.762;2023-03-16T08:38:11;9.80;;;1.50;;
73869;SDS011;64924;42.140;24.762;2023-03-16T08:40:38;4.07;;;1.23;;
73869;SDS011;64924;42.140;24.762;2023-03-16T08:43:06;4.75;;;1.60;;
73869;SDS011;64924;42.140;24.762;2023-03-16T08:45:32;7.85;;;3.38;;
73869;SDS011;64924;42.140;24.762;2023-03-16T08:47:59;12.93;;;4.32;;
73869;SDS011;64924;42.140;24.762;2023-03-16T08:50:24;6.93;;;2.47;;
73869;SDS011;64924;42.140;24.762;2023-03-16T08:52:51;4.32;;;1.85;;
73869;SDS011;64924;42.140;24.762;2023-03-16T08:55:17;3.58;;;1.65;;
73869;SDS011;64924;42.140;24.762;2023-03-16T08:57:43;2.88;;;1.75;;
73869;SDS011;64924;42.140;24.762;2023-03-16T09:00:10;13.80;;;1.45;;
73869;SDS011;64924;42.140;24.762;2023-03-16T09:02:38;2.75;;;1.30;;
73869;SDS011;64924;42.140;24.762;2023-03-16T09:05:08;3.50;;;1.63;;
73869;SDS011;64924;42.140;24.762;2023-03-16T09:07:35;1.98;;;1.05;;
73869;SDS011;64924;42.140;24.762;2023-03-16T09:10:02;2.72;;;1.48;;
73869;SDS011;64924;42.140;24.762;2023-03-16T09:12:29;4.45;;;1.58;;
73869;SDS011;64924;42.140;24.762;2023-03-16T09:14:56;8.80;;;2.45;;
73869;SDS011;64924;42.140;24.762;2023-03-16T09:17:21;2.10;;;1.33;;
73869;SDS011;64924;42.140;24.762;2023-03-16T09:19:47;4.93;;;1.60;;
73869;SDS011;64924;42.140;24.762;2023-03-16T09:22:13;4.97;;;1.70;;
73869;SDS011;64924;42.140;24.762;2023-03-16T09:24:38;3.25;;;1.52;;
73869;SDS011;64924;42.140;24.762;2023-03-16T09:27:04;2.15;;;1.00;;
73869;SDS011;64924;42.140;24.762;2023-03-16T09:29:29;2.10;;;1.25;;
73869;SDS011;64924;42.140;24.762;2023-03-16T09:31:55;4.13;;;2.58;;
73869;SDS011;64924;42.140;24.762;2023-03-16T09:34:21;3.80;;;2.55;;
73869;SDS011;64924;42.140;24.762;2023-03-16T09:36:47;4.20;;;1.73;;
73869;SDS011;64924;42.140;24.762;2023-03-16T09:39:12;7.22;;;1.52;;
73869;SDS011;64924;42.140;24.762;2023-03-16T09:41:43;6.75;;;1.45;;
73869;SDS011;64924;42.140;24.762;2023-03-16T09:46:56;2.90;;;1.20;;
73869;SDS011;64924;42.140;24.762;2023-03-16T09:49:26;2.55;;;1.02;;
73869;SDS011;64924;42.140;24.762;2023-03-16T09:56:58;4.80;;;1.58;;
73869;SDS011;64924;42.140;24.762;2023-03-16T09:59:25;3.53;;;1.50;;
73869;SDS011;64924;42.140;24.762;2023-03-16T10:05:22;2.90;;;1.17;;
73869;SDS011;64924;42.140;24.762;2023-03-16T10:10:38;8.63;;;2.00;;
73869;SDS011;64924;42.140;24.762;2023-03-16T10:13:45;1.52;;;0.95;;
73869;SDS011;64924;42.140;24.762;2023-03-16T10:21:39;5.55;;;1.30;;
73869;SDS011;64924;42.140;24.762;2023-03-16T10:24:11;7.88;;;1.75;;
73869;SDS011;64924;42.140;24.762;2023-03-16T10:26:43;2.38;;;1.30;;
73869;SDS011;64924;42.140;24.762;2023-03-16T10:29:18;5.60;;;2.40;;
73869;SDS011;64924;42.140;24.762;2023-03-16T10:31:44;5.50;;;1.80;;
73869;SDS011;64924;42.140;24.762;2023-03-16T10:34:09;3.15;;;1.90;;
73869;SDS011;64924;42.140;24.762;2023-03-16T10:36:37;5.78;;;2.58;;
73869;SDS011;64924;42.140;24.762;2023-03-16T10:39:07;5.60;;;1.77;;
73869;SDS011;64924;42.140;24.762;2023-03-16T10:41:36;6.78;;;2.20;;
73869;SDS011;64924;42.140;24.762;2023-03-16T10:49:22;6.78;;;1.77;;
73869;SDS011;64924;42.140;24.762;2023-03-16T10:51:56;2.20;;;1.20;;
73869;SDS011;64924;42.140;24.762;2023-03-16T10:54:27;1.80;;;1.20;;
73869;SDS011;64924;42.140;24.762;2023-03-16T10:56:56;3.85;;;1.13;;
73869;SDS011;64924;42.140;24.762;2023-03-16T11:02:14;2.95;;;1.85;;
73869;SDS011;64924;42.140;24.762;2023-03-16T11:04:41;5.68;;;1.60;;
73869;SDS011;64924;42.140;24.762;2023-03-16T11:07:07;3.05;;;1.40;;
73869;SDS011;64924;42.140;24.762;2023-03-16T11:09:39;2.35;;;1.48;;
73869;SDS011;64924;42.140;24.762;2023-03-16T11:12:18;3.67;;;1.60;;
73869;SDS011;64924;42.140;24.762;2023-03-16T11:14:59;5.63;;;2.55;;
73869;SDS011;64924;42.140;24.762;2023-03-16T11:17:48;6.60;;;1.80;;
73869;SDS011;64924;42.140;24.762;2023-03-16T11:20:18;2.45;;;1.58;;
73869;SDS011;64924;42.140;24.762;2023-03-16T11:22:47;4.53;;;2.80;;
73869;SDS011;64924;42.140;24.762;2023-03-16T11:25:25;3.08;;;2.10;;
73869;SDS011;64924;42.140;24.762;2023-03-16T11:30:39;4.55;;;1.40;;
73869;SDS011;64924;42.140;24.762;2023-03-16T11:33:13;9.77;;;2.15;;
73869;SDS011;64924;42.140;24.762;2023-03-16T11:38:17;5.43;;;1.50;;
73869;SDS011;64924;42.140;24.762;2023-03-16T11:46:39;3.63;;;1.80;;
73869;SDS011;64924;42.140;24.762;2023-03-16T11:59:49;2.35;;;1.60;;
73869;SDS011;64924;42.140;24.762;2023-03-16T12:07:59;2.35;;;1.60;;
73869;SDS011;64924;42.140;24.762;2023-03-16T12:11:01;4.60;;;1.58;;
73869;SDS011;64924;42.140;24.762;2023-03-16T12:19:15;2.00;;;1.45;;
73869;SDS011;64924;42.140;24.762;2023-03-16T12:21:47;4.38;;;2.40;;
73869;SDS011;64924;42.140;24.762;2023-03-16T12:24:23;5.68;;;4.05;;
73869;SDS011;64924;42.140;24.762;2023-03-16T12:26:52;4.65;;;2.25;;
73869;SDS011;64924;42.140;24.762;2023-03-16T12:29:23;6.32;;;2.00;;
73869;SDS011;64924;42.140;24.762;2023-03-16T12:37:45;4.18;;;2.00;;
73869;SDS011;64924;42.140;24.762;2023-03-16T12:40:42;3.60;;;2.17;;
73869;SDS011;64924;42.140;24.762;2023-03-16T12:48:54;5.00;;;1.98;;
73869;SDS011;64924;42.140;24.762;2023-03-16T12:54:02;7.65;;;2.70;;
73869;SDS011;64924;42.140;24.762;2023-03-16T12:56:33;4.20;;;2.60;;
73869;SDS011;64924;42.140;24.762;2023-03-16T12:59:03;3.53;;;2.28;;
73869;SDS011;64924;42.140;24.762;2023-03-16T13:01:40;14.45;;;3.08;;
73869;SDS011;64924;42.140;24.762;2023-03-16T13:04:09;4.20;;;2.78;;
73869;SDS011;64924;42.140;24.762;2023-03-16T13:06:46;4.63;;;2.33;;
73869;SDS011;64924;42.140;24.762;2023-03-16T13:09:18;3.75;;;2.30;;
73869;SDS011;64924;42.140;24.762;2023-03-16T13:11:48;3.10;;;2.30;;
73869;SDS011;64924;42.140;24.762;2023-03-16T13:14:16;2.75;;;2.15;;
73869;SDS011;64924;42.140;24.762;2023-03-16T13:17:03;2.08;;;1.70;;
73869;SDS011;64924;42.140;24.762;2023-03-16T13:20:03;3.15;;;2.00;;
73869;SDS011;64924;42.140;24.762;2023-03-16T13:22:43;4.22;;;2.13;;
73869;SDS011;64924;42.140;24.762;2023-03-16T13:27:51;2.63;;;1.80;;
73869;SDS011;64924;42.140;24.762;2023-03-16T13:32:46;4.28;;;2.17;;
73869;SDS011;64924;42.140;24.762;2023-03-16T13:35:13;5.25;;;2.70;;
73869;SDS011;64924;42.140;24.762;2023-03-16T13:37:51;6.03;;;3.28;;
73869;SDS011;64924;42.140;24.762;2023-03-16T13:40:24;5.15;;;3.10;;
73869;SDS011;64924;42.140;24.762;2023-03-16T13:42:53;4.43;;;2.80;;
73869;SDS011;64924;42.140;24.762;2023-03-16T13:45:23;5.32;;;2.80;;
73869;SDS011;64924;42.140;24.762;2023-03-16T13:47:53;3.20;;;2.15;;
73869;SDS011;64924;42.140;24.762;2023-03-16T13:50:19;3.80;;;2.30;;
73869;SDS011;64924;42.140;24.762;2023-03-16T13:53:30;6.57;;;2.95;;
73869;SDS011;64924;42.140;24.762;2023-03-16T13:55:55;5.60;;;3.10;;
73869;SDS011;64924;42.140;24.762;2023-03-16T13:58:27;6.05;;;2.75;;
73869;SDS011;64924;42.140;24.762;2023-03-16T14:01:27;8.73;;;4.43;;
73869;SDS011;64924;42.140;24.762;2023-03-16T14:03:57;6.10;;;3.63;;
73869;SDS011;64924;42.140;24.762;2023-03-16T14:06:28;7.00;;;3.67;;
73869;SDS011;64924;42.140;24.762;2023-03-16T14:08:59;6.75;;;3.53;;
73869;SDS011;64924;42.140;24.762;2023-03-16T14:11:30;6.10;;;4.30;;
73869;SDS011;64924;42.140;24.762;2023-03-16T14:13:56;5.45;;;2.92;;
73869;SDS011;64924;42.140;24.762;2023-03-16T14:16:25;4.40;;;3.08;;
73869;SDS011;64924;42.140;24.762;2023-03-16T14:19:07;3.42;;;2.67;;
73869;SDS011;64924;42.140;24.762;2023-03-16T14:21:48;6.05;;;3.58;;
73869;SDS011;64924;42.140;24.762;2023-03-16T14:24:22;4.55;;;3.40;;
73869;SDS011;64924;42.140;24.762;2023-03-16T14:26:55;5.30;;;2.50;;
73869;SDS011;64924;42.140;24.762;2023-03-16T14:29:24;5.25;;;2.95;;
73869;SDS011;64924;42.140;24.762;2023-03-16T14:31:54;5.35;;;2.70;;
73869;SDS011;64924;42.140;24.762;2023-03-16T14:34:27;4.95;;;2.83;;
73869;SDS011;64924;42.140;24.762;2023-03-16T14:37:08;5.93;;;3.00;;
73869;SDS011;64924;42.140;24.762;2023-03-16T14:39:35;5.93;;;2.67;;
73869;SDS011;64924;42.140;24.762;2023-03-16T14:42:02;7.00;;;2.80;;
73869;SDS011;64924;42.140;24.762;2023-03-16T14:44:30;4.07;;;2.45;;
73869;SDS011;64924;42.140;24.762;2023-03-16T14:46:58;5.20;;;2.85;;
73869;SDS011;64924;42.140;24.762;2023-03-16T14:51:57;5.28;;;3.45;;
73869;SDS011;64924;42.140;24.762;2023-03-16T14:54:26;5.57;;;3.05;;
73869;SDS011;64924;42.140;24.762;2023-03-16T14:56:53;3.70;;;2.60;;
73869;SDS011;64924;42.140;24.762;2023-03-16T14:59:23;4.35;;;2.50;;
73869;SDS011;64924;42.140;24.762;2023-03-16T15:01:49;5.60;;;2.95;;
73869;SDS011;64924;42.140;24.762;2023-03-16T15:04:18;23.00;;;8.95;;
73869;SDS011;64924;42.140;24.762;2023-03-16T15:06:50;5.88;;;3.20;;
73869;SDS011;64924;42.140;24.762;2023-03-16T15:11:53;6.10;;;3.47;;
73869;SDS011;64924;42.140;24.762;2023-03-16T15:14:19;8.52;;;3.22;;
73869;SDS011;64924;42.140;24.762;2023-03-16T15:17:05;4.95;;;2.90;;
73869;SDS011;64924;42.140;24.762;2023-03-16T15:19:31;10.85;;;3.42;;
73869;SDS011;64924;42.140;24.762;2023-03-16T15:21:57;5.22;;;2.90;;
73869;SDS011;64924;42.140;24.762;2023-03-16T15:24:24;7.57;;;3.78;;
73869;SDS011;64924;42.140;24.762;2023-03-16T15:26:53;5.85;;;3.75;;
73869;SDS011;64924;42.140;24.762;2023-03-16T15:29:19;8.10;;;3.15;;
73869;SDS011;64924;42.140;24.762;2023-03-16T15:31:45;4.45;;;3.30;;
73869;SDS011;64924;42.140;24.762;2023-03-16T15:34:11;10.63;;;6.15;;
73869;SDS011;64924;42.140;24.762;2023-03-16T15:36:36;4.20;;;3.10;;
73869;SDS011;64924;42.140;24.762;2023-03-16T15:39:02;4.53;;;3.63;;
73869;SDS011;64924;42.140;24.762;2023-03-16T15:41:28;4.32;;;3.00;;
73869;SDS011;64924;42.140;24.762;2023-03-16T15:43:53;5.63;;;3.95;;
73869;SDS011;64924;42.140;24.762;2023-03-16T15:46:24;5.60;;;3.45;;
73869;SDS011;64924;42.140;24.762;2023-03-16T15:48:52;6.53;;;3.65;;
73869;SDS011;64924;42.140;24.762;2023-03-16T15:51:19;7.28;;;3.70;;
73869;SDS011;64924;42.140;24.762;2023-03-16T15:56:42;11.50;;;6.50;;
73869;SDS011;64924;42.140;24.762;2023-03-16T15:59:10;10.45;;;6.60;;
73869;SDS011;64924;42.140;24.762;2023-03-16T16:01:42;8.00;;;5.03;;
73869;SDS011;64924;42.140;24.762;2023-03-16T16:04:13;5.93;;;3.92;;
73869;SDS011;64924;42.140;24.762;2023-03-16T16:06:41;8.57;;;3.92;;
73869;SDS011;64924;42.140;24.762;2023-03-16T16:09:08;4.97;;;3.40;;
73869;SDS011;64924;42.140;24.762;2023-03-16T16:11:34;5.93;;;3.03;;
73869;SDS011;64924;42.140;24.762;2023-03-16T16:14:00;5.55;;;3.83;;
73869;SDS011;64924;42.140;24.762;2023-03-16T16:16:26;7.95;;;3.00;;